createdAt,value
2019-05-01T00:00:26.169Z,15.30
2019-05-01T00:03:14.561Z,15.55
2019-05-01T00:05:47.075Z,16.57
2019-05-01T00:08:17.079Z,13.58
2019-05-01T00:10:46.103Z,17.05
2019-05-01T00:13:15.779Z,17.42
2019-05-01T00:15:45.355Z,14.58
2019-05-01T00:18:14.659Z,17.05
2019-05-01T00:20:43.849Z,16.87
2019-05-01T00:23:13.104Z,22.42
2019-05-01T00:25:42.383Z,16.30
2019-05-01T00:28:11.650Z,12.83
2019-05-01T00:30:41.112Z,17.33
2019-05-01T00:33:10.203Z,18.80
2019-05-01T00:35:39.531Z,18.65
2019-05-01T00:38:08.719Z,18.73
2019-05-01T00:40:38.009Z,13.70
2019-05-01T00:43:07.329Z,17.43
2019-05-01T00:45:36.511Z,15.17
2019-05-01T00:48:08.599Z,23.40
2019-05-01T00:50:37.982Z,20.35
2019-05-01T00:53:07.275Z,15.43
2019-05-01T00:56:04.717Z,17.60
2019-05-01T00:59:11.453Z,20.95
2019-05-01T01:02:03.191Z,16.40
2019-05-01T01:04:32.703Z,18.65
2019-05-01T01:07:01.876Z,21.40
2019-05-01T01:09:31.245Z,16.70
2019-05-01T01:12:00.710Z,17.30
2019-05-01T01:14:29.955Z,16.32
2019-05-01T01:16:59.224Z,15.87
2019-05-01T01:19:28.547Z,17.70
2019-05-01T01:21:58.082Z,20.30
2019-05-01T01:24:27.692Z,18.73
2019-05-01T01:26:57.197Z,20.27
2019-05-01T01:29:32.128Z,20.23
2019-05-01T01:32:01.714Z,16.87
2019-05-01T01:34:31.072Z,21.17
2019-05-01T01:37:00.357Z,20.80
2019-05-01T01:39:29.739Z,15.80
2019-05-01T01:41:59.326Z,20.57
2019-05-01T01:44:37.070Z,17.12
2019-05-01T01:47:06.456Z,19.23
2019-05-01T01:49:35.947Z,22.20
2019-05-01T01:52:05.473Z,17.07
2019-05-01T01:54:34.823Z,22.22
2019-05-01T01:57:04.308Z,23.18
2019-05-01T01:59:33.685Z,20.95
2019-05-01T02:02:20.920Z,23.87
2019-05-01T02:05:18.446Z,26.87
2019-05-01T02:07:47.621Z,24.35
2019-05-01T02:10:17.141Z,25.97
2019-05-01T02:12:46.808Z,23.15
2019-05-01T02:15:16.166Z,22.95
2019-05-01T02:17:45.525Z,27.30
2019-05-01T02:20:15.137Z,26.48
2019-05-01T02:22:44.289Z,31.70
2019-05-01T02:25:14.208Z,41.55
2019-05-01T02:28:05.974Z,30.95
2019-05-01T02:30:35.463Z,28.67
2019-05-01T02:33:05.274Z,23.62
2019-05-01T02:35:35.762Z,29.75
2019-05-01T02:38:06.891Z,25.23
2019-05-01T02:40:54.241Z,33.98
2019-05-01T02:43:26.481Z,24.87
2019-05-01T02:45:58.767Z,23.98
2019-05-01T02:48:32.464Z,25.68
2019-05-01T02:51:04.006Z,31.55
2019-05-01T02:53:36.528Z,29.30
2019-05-01T02:56:41.401Z,28.77
2019-05-01T02:59:13.596Z,31.57
2019-05-01T03:01:47.823Z,29.15
2019-05-01T03:04:37.319Z,31.27
2019-05-01T03:07:08.063Z,27.77
2019-05-01T03:09:38.679Z,31.97
2019-05-01T03:12:10.300Z,29.55
2019-05-01T03:14:43.151Z,32.35
2019-05-01T03:17:56.169Z,28.25
2019-05-01T03:20:54.352Z,28.15
2019-05-01T03:23:33.845Z,31.35
2019-05-01T03:26:04.869Z,31.97
2019-05-01T03:28:40.177Z,33.13
2019-05-01T03:31:09.674Z,37.48
2019-05-01T03:33:39.657Z,34.03
2019-05-01T03:36:09.152Z,33.20
2019-05-01T03:38:41.301Z,31.20
2019-05-01T03:41:10.714Z,31.95
2019-05-01T03:43:40.557Z,37.73
2019-05-01T03:46:10.793Z,36.77
2019-05-01T03:51:08.503Z,35.08
2019-05-01T03:53:38.520Z,39.92
2019-05-01T03:56:08.515Z,39.75
2019-05-01T03:58:38.019Z,35.03
2019-05-01T04:01:17.581Z,37.83
2019-05-01T04:03:52.756Z,43.23
2019-05-01T04:06:22.580Z,38.08
2019-05-01T04:08:52.023Z,36.28
2019-05-01T04:11:21.904Z,37.78
2019-05-01T04:13:51.337Z,43.50
2019-05-01T04:16:21.574Z,38.55
2019-05-01T04:18:50.877Z,33.75
2019-05-01T04:21:22.359Z,35.00
2019-05-01T04:23:51.728Z,40.58
2019-05-01T04:26:21.074Z,43.67
2019-05-01T04:28:56.542Z,38.88
2019-05-01T04:31:50.654Z,46.85
2019-05-01T04:34:32.345Z,43.28
2019-05-01T04:37:03.628Z,42.08
2019-05-01T04:39:34.221Z,37.13
2019-05-01T04:42:03.815Z,40.20
2019-05-01T04:44:33.661Z,45.43
2019-05-01T04:47:03.579Z,39.90
2019-05-01T04:49:33.273Z,46.13
2019-05-01T04:52:03.194Z,43.92
2019-05-01T04:54:32.547Z,47.60
2019-05-01T04:57:02.013Z,48.13
2019-05-01T04:59:31.509Z,44.55
2019-05-01T05:02:03.287Z,44.90
2019-05-01T05:04:33.712Z,42.10
2019-05-01T05:07:03.181Z,41.77
2019-05-01T05:09:42.530Z,36.75
2019-05-01T05:12:31.068Z,37.20
2019-05-01T05:15:07.868Z,41.05
2019-05-01T05:17:37.371Z,45.58
2019-05-01T05:20:07.029Z,42.17
2019-05-01T05:22:36.360Z,47.50
2019-05-01T05:25:05.822Z,44.23
2019-05-01T05:27:35.388Z,44.65
2019-05-01T05:30:05.206Z,47.88
2019-05-01T05:32:36.960Z,46.98
2019-05-01T05:35:07.951Z,51.37
2019-05-01T05:37:43.854Z,49.38
2019-05-01T05:40:13.430Z,46.13
2019-05-01T05:42:42.810Z,48.50
2019-05-01T05:45:12.215Z,49.83
2019-05-01T05:47:43.410Z,50.35
2019-05-01T05:50:14.800Z,46.08
2019-05-01T05:52:54.074Z,48.42
2019-05-01T05:55:36.649Z,49.23
2019-05-01T05:58:30.785Z,55.88
2019-05-01T06:01:34.101Z,50.75
2019-05-01T06:04:25.523Z,53.13
2019-05-01T06:07:26.515Z,52.17
2019-05-01T06:10:18.468Z,56.83
2019-05-01T06:13:06.313Z,59.88
2019-05-01T06:16:04.154Z,51.55
2019-05-01T06:18:42.613Z,54.18
2019-05-01T06:21:18.827Z,53.95
2019-05-01T06:24:07.213Z,59.75
2019-05-01T06:26:39.401Z,58.95
2019-05-01T06:29:08.515Z,54.67
2019-05-01T06:31:38.273Z,55.77
2019-05-01T06:34:07.836Z,51.88
2019-05-01T06:36:37.438Z,57.20
2019-05-01T06:39:11.749Z,54.83
2019-05-01T06:41:44.055Z,54.67
2019-05-01T06:44:20.423Z,61.63
2019-05-01T06:46:58.267Z,57.08
2019-05-01T06:49:40.699Z,46.30
2019-05-01T06:52:10.752Z,61.95
2019-05-01T06:54:40.536Z,52.25
2019-05-01T06:57:09.913Z,62.13
2019-05-01T06:59:42.340Z,61.07
2019-05-01T07:02:16.112Z,56.25
2019-05-01T07:04:47.992Z,55.95
2019-05-01T07:07:25.292Z,55.38
2019-05-01T07:09:52.182Z,53.25
2019-05-01T07:12:27.810Z,58.73
2019-05-01T07:14:54.788Z,64.20
2019-05-01T07:17:24.186Z,59.30
2019-05-01T07:20:31.413Z,64.85
2019-05-01T07:23:01.021Z,69.07
2019-05-01T07:25:30.442Z,62.13
2019-05-01T07:27:59.925Z,60.85
2019-05-01T07:31:06.872Z,62.38
2019-05-01T07:33:36.861Z,74.45
2019-05-01T07:36:11.826Z,73.00
2019-05-01T07:38:38.727Z,73.05
2019-05-01T07:41:08.987Z,73.97
2019-05-01T07:43:59.690Z,69.50
2019-05-01T07:46:54.021Z,67.83
2019-05-01T07:49:27.444Z,62.33
2019-05-01T07:51:56.940Z,68.37
2019-05-01T07:54:26.173Z,70.08
2019-05-01T07:56:58.766Z,64.50
2019-05-01T07:59:27.451Z,71.42
2019-05-01T08:02:06.545Z,65.92
2019-05-01T08:04:38.773Z,75.83
2019-05-01T08:07:12.656Z,79.20
2019-05-01T08:09:45.821Z,67.87
2019-05-01T08:12:14.489Z,64.32
2019-05-01T08:14:47.701Z,57.33
2019-05-01T08:17:20.645Z,61.20
2019-05-01T08:19:58.712Z,60.20
2019-05-01T08:22:32.185Z,65.37
2019-05-01T08:25:02.568Z,66.77
2019-05-01T08:27:55.843Z,65.62
2019-05-01T08:30:36.447Z,70.40
2019-05-01T08:33:24.950Z,75.08
2019-05-01T08:35:54.566Z,72.67
2019-05-01T08:38:24.017Z,66.02
2019-05-01T08:40:55.476Z,68.00
2019-05-01T08:43:24.509Z,67.58
2019-05-01T08:46:05.172Z,74.60
2019-05-01T08:48:42.268Z,60.28
2019-05-01T08:51:11.526Z,75.05
2019-05-01T08:53:40.608Z,74.17
2019-05-01T08:56:09.925Z,60.90
2019-05-01T08:58:39.234Z,58.83
2019-05-01T09:01:10.847Z,59.13
2019-05-01T09:03:39.644Z,69.75
2019-05-01T09:06:08.944Z,59.07
2019-05-01T09:08:38.278Z,58.60
2019-05-01T09:11:07.683Z,68.78
2019-05-01T09:13:41.073Z,65.05
2019-05-01T09:16:10.273Z,60.33
2019-05-01T09:18:39.673Z,57.83
2019-05-01T09:21:09.187Z,63.42
2019-05-01T09:23:38.436Z,69.37
2019-05-01T09:26:32.568Z,71.50
2019-05-01T09:29:05.574Z,59.70
2019-05-01T09:31:35.707Z,64.65
2019-05-01T09:34:05.857Z,52.45
2019-05-01T09:39:06.164Z,49.55
2019-05-01T09:41:38.719Z,46.48
2019-05-01T09:44:12.152Z,47.27
2019-05-01T09:46:42.364Z,55.40
2019-05-01T09:49:14.227Z,50.63
2019-05-01T09:52:18.928Z,59.05
2019-05-01T09:54:51.082Z,55.50
2019-05-01T09:57:23.729Z,53.00
2019-05-01T09:59:53.138Z,63.90
2019-05-01T10:02:26.450Z,51.00
2019-05-01T10:04:56.087Z,53.65
2019-05-01T10:07:28.991Z,51.63
2019-05-01T10:09:57.532Z,54.30
2019-05-01T10:12:26.945Z,59.27
2019-05-01T10:14:56.342Z,56.60
2019-05-01T10:17:26.189Z,56.75
2019-05-01T10:19:55.446Z,44.58
2019-05-01T10:22:24.805Z,52.43
2019-05-01T10:24:54.078Z,46.65
2019-05-01T10:27:26.039Z,48.50
2019-05-01T10:30:13.316Z,42.93
2019-05-01T10:32:46.276Z,47.00
2019-05-01T10:35:41.817Z,49.33
2019-05-01T10:38:04.780Z,46.13
2019-05-01T10:40:34.263Z,52.90
2019-05-01T10:43:06.586Z,41.50
2019-05-01T10:45:35.969Z,43.00
2019-05-01T10:48:05.208Z,41.97
2019-05-01T10:50:34.691Z,48.47
2019-05-01T10:53:04.206Z,40.98
2019-05-01T10:55:33.845Z,37.83
2019-05-01T10:58:03.525Z,48.95
2019-05-01T11:00:33.459Z,46.35
2019-05-01T11:03:02.646Z,47.40
2019-05-01T11:05:31.921Z,51.63
2019-05-01T11:08:00.987Z,53.37
2019-05-01T11:10:30.930Z,39.23
2019-05-01T11:13:00.312Z,44.95
2019-05-01T11:15:32.590Z,39.73
2019-05-01T11:18:01.846Z,53.73
2019-05-01T11:20:31.248Z,43.07
2019-05-01T11:23:00.756Z,39.83
2019-05-01T11:25:30.164Z,40.20
2019-05-01T11:27:59.381Z,33.88
2019-05-01T11:30:28.633Z,40.33
2019-05-01T11:33:19.998Z,39.17
2019-05-01T11:36:13.720Z,37.60
2019-05-01T11:39:07.822Z,33.33
2019-05-01T11:41:44.418Z,34.85
2019-05-01T11:44:13.620Z,39.67
2019-05-01T11:46:42.845Z,32.60
2019-05-01T11:49:12.159Z,32.77
2019-05-01T11:51:41.612Z,30.77
2019-05-01T11:54:10.846Z,35.43
2019-05-01T11:56:41.176Z,31.50
2019-05-01T11:59:11.514Z,34.85
2019-05-01T12:01:42.083Z,33.25
2019-05-01T12:04:12.622Z,27.30
2019-05-01T12:06:41.778Z,23.77
2019-05-01T12:09:12.333Z,27.43
2019-05-01T12:11:43.329Z,28.30
2019-05-01T12:14:12.579Z,27.20
2019-05-01T12:16:59.920Z,33.80
2019-05-01T12:19:29.170Z,30.57
2019-05-01T12:21:58.422Z,28.57
2019-05-01T12:24:27.586Z,29.27
2019-05-01T12:26:56.869Z,35.05
2019-05-01T12:29:26.125Z,29.77
2019-05-01T12:31:55.304Z,24.37
2019-05-01T12:34:24.351Z,29.23
2019-05-01T12:37:12.602Z,25.88
2019-05-01T12:39:42.686Z,34.10
2019-05-01T12:44:40.382Z,27.07
2019-05-01T12:47:15.553Z,24.87
2019-05-01T12:49:46.616Z,29.87
2019-05-01T12:52:38.022Z,24.70
2019-05-01T12:55:13.202Z,26.30
2019-05-01T12:57:42.399Z,22.77
2019-05-01T13:00:14.518Z,24.37
2019-05-01T13:02:43.717Z,23.00
2019-05-01T13:05:13.040Z,28.17
2019-05-01T13:07:42.280Z,27.55
2019-05-01T13:10:11.820Z,32.13
2019-05-01T13:12:41.120Z,24.50
2019-05-01T13:15:10.759Z,23.93
2019-05-01T13:17:39.928Z,25.30
2019-05-01T13:20:09.914Z,26.50
2019-05-01T13:22:39.432Z,25.30
2019-05-01T13:25:09.409Z,29.60
2019-05-01T13:27:51.208Z,24.87
2019-05-01T13:30:38.662Z,24.07
2019-05-01T13:33:08.307Z,21.05
2019-05-01T13:35:37.613Z,22.00
2019-05-01T13:38:09.088Z,22.80
2019-05-01T13:40:38.313Z,21.70
2019-05-01T13:43:07.852Z,26.00
2019-05-01T13:45:37.224Z,22.65
2019-05-01T13:48:06.779Z,30.52
2019-05-01T13:50:36.175Z,23.55
2019-05-01T13:53:05.595Z,25.32
2019-05-01T13:55:34.930Z,19.27
2019-05-01T13:58:04.248Z,22.70
2019-05-01T14:00:33.786Z,20.77
2019-05-01T14:03:03.155Z,22.35
2019-05-01T14:05:32.555Z,24.87
2019-05-01T14:08:01.708Z,24.18
2019-05-01T14:10:31.058Z,25.60
2019-05-01T14:13:00.451Z,20.88
2019-05-01T14:15:29.672Z,17.55
2019-05-01T14:17:58.940Z,22.77
2019-05-01T14:20:36.679Z,20.43
2019-05-01T14:23:14.620Z,15.40
2019-05-01T14:26:01.682Z,19.42
2019-05-01T14:28:30.737Z,17.67
2019-05-01T14:30:59.749Z,23.38
2019-05-01T14:33:28.956Z,14.90
2019-05-01T14:35:58.159Z,14.93
2019-05-01T14:38:27.544Z,17.63
2019-05-01T14:40:56.914Z,17.67
2019-05-01T14:43:29.080Z,12.78
2019-05-01T14:45:58.461Z,12.40
2019-05-01T14:48:27.528Z,15.53
2019-05-01T14:50:56.903Z,16.57
2019-05-01T14:53:25.978Z,19.62
2019-05-01T14:55:55.265Z,15.48
2019-05-01T14:58:24.511Z,17.90
2019-05-01T15:00:53.999Z,14.13
2019-05-01T15:03:23.113Z,21.75
2019-05-01T15:05:52.365Z,18.65
2019-05-01T15:08:21.623Z,15.67
2019-05-01T15:10:50.710Z,13.80
2019-05-01T15:13:37.996Z,15.08
2019-05-01T15:16:13.777Z,10.20
2019-05-01T15:18:58.716Z,15.80
2019-05-01T15:21:27.873Z,15.10
2019-05-01T15:23:57.045Z,14.90
2019-05-01T15:26:26.241Z,12.33
2019-05-01T15:28:55.642Z,9.23
2019-05-01T15:31:24.835Z,16.67
2019-05-01T15:33:53.779Z,12.07
2019-05-01T15:36:23.149Z,16.30
2019-05-01T15:38:52.390Z,15.30
2019-05-01T15:41:39.811Z,10.70
2019-05-01T15:44:17.478Z,16.07
2019-05-01T15:46:47.006Z,12.50
2019-05-01T15:49:16.160Z,14.20
2019-05-01T15:51:45.689Z,21.17
2019-05-01T15:54:15.037Z,12.25
2019-05-01T15:56:44.171Z,12.65
2019-05-01T15:59:13.472Z,9.53
2019-05-01T16:01:43.023Z,11.35
2019-05-01T16:04:12.299Z,10.48
2019-05-01T16:06:41.409Z,12.53
2019-05-01T16:09:10.535Z,9.85
2019-05-01T16:12:10.897Z,11.63
2019-05-01T16:14:42.179Z,13.10
2019-05-01T16:17:11.312Z,8.18
2019-05-01T16:19:40.452Z,6.40
2019-05-01T16:22:09.834Z,8.93
2019-05-01T16:24:39.142Z,6.87
2019-05-01T16:27:08.324Z,11.15
2019-05-01T16:29:37.610Z,6.87
2019-05-01T16:32:06.955Z,10.40
2019-05-01T16:34:36.258Z,5.17
2019-05-01T16:37:05.251Z,5.73
2019-05-01T16:39:53.752Z,8.18
2019-05-01T16:42:32.622Z,7.10
2019-05-01T16:45:01.998Z,5.42
2019-05-01T16:47:31.356Z,7.62
2019-05-01T16:50:00.653Z,10.45
2019-05-01T16:52:32.283Z,16.82
2019-05-01T16:55:01.331Z,6.50
2019-05-01T16:57:30.371Z,5.35
2019-05-01T16:59:59.568Z,7.65
2019-05-01T17:02:40.839Z,9.17
2019-05-01T17:05:25.192Z,7.03
2019-05-01T17:08:35.691Z,5.75
2019-05-01T17:10:56.750Z,6.80
2019-05-01T17:13:37.261Z,12.73
2019-05-01T17:16:06.603Z,10.85
2019-05-01T17:18:35.875Z,7.55
2019-05-01T17:21:05.741Z,7.72
2019-05-01T17:23:35.553Z,8.65
2019-05-01T17:26:04.831Z,7.80
2019-05-01T17:28:34.123Z,9.03
2019-05-01T17:31:07.219Z,6.33
2019-05-01T17:33:39.141Z,10.08
2019-05-01T17:36:08.454Z,9.53
2019-05-01T17:38:49.004Z,5.97
2019-05-01T17:41:09.087Z,6.22
2019-05-01T17:43:38.663Z,6.08
2019-05-01T17:46:11.927Z,12.05
2019-05-01T17:48:44.160Z,11.08
2019-05-01T17:51:13.865Z,12.65
2019-05-01T17:53:43.550Z,11.33
2019-05-01T17:56:15.252Z,10.63
2019-05-01T17:58:44.325Z,8.18
2019-05-01T18:01:48.385Z,6.53
2019-05-01T18:04:27.011Z,6.72
2019-05-01T18:06:56.484Z,7.58
2019-05-01T18:09:25.645Z,6.47
2019-05-01T18:14:38.475Z,7.05
2019-05-01T18:17:08.538Z,9.15
2019-05-01T18:22:12.734Z,9.15
2019-05-01T18:25:06.807Z,7.87
2019-05-01T18:28:00.793Z,6.72
2019-05-01T18:30:36.027Z,5.92
2019-05-01T18:33:05.780Z,11.48
2019-05-01T18:35:35.047Z,8.05
2019-05-01T18:38:23.727Z,7.67
2019-05-01T18:40:58.146Z,9.50
2019-05-01T18:43:32.147Z,8.93
2019-05-01T18:45:58.947Z,6.20
2019-05-01T18:51:11.015Z,6.83
2019-05-01T18:53:41.158Z,10.87
2019-05-01T18:58:38.667Z,9.10
2019-05-01T19:01:09.179Z,10.05
2019-05-01T19:03:42.293Z,9.33
2019-05-01T19:06:10.055Z,13.35
2019-05-01T19:08:39.404Z,11.03
2019-05-01T19:11:12.799Z,10.80
2019-05-01T19:13:41.745Z,10.08
2019-05-01T19:16:11.349Z,8.68
2019-05-01T19:18:40.382Z,11.15
2019-05-01T19:21:11.246Z,11.68
2019-05-01T19:23:40.776Z,12.60
2019-05-01T19:26:10.686Z,10.88
2019-05-01T19:28:42.764Z,10.85
2019-05-01T19:31:15.663Z,12.30
2019-05-01T19:33:48.447Z,17.00
2019-05-01T19:36:21.562Z,11.88
2019-05-01T19:38:56.756Z,11.30
2019-05-01T19:41:33.534Z,15.90
2019-05-01T19:44:08.177Z,11.75
2019-05-01T19:46:43.610Z,13.05
2019-05-01T19:49:29.497Z,14.58
2019-05-01T19:52:00.656Z,17.50
2019-05-01T19:54:40.145Z,14.68
2019-05-01T19:57:17.245Z,13.28
2019-05-01T19:59:52.043Z,10.05
2019-05-01T20:02:32.834Z,11.93
2019-05-01T20:05:07.132Z,14.00
2019-05-01T20:07:43.577Z,14.53
2019-05-01T20:10:16.006Z,16.87
2019-05-01T20:12:51.346Z,18.67
2019-05-01T20:15:27.061Z,16.52
2019-05-01T20:18:01.605Z,16.55
2019-05-01T20:20:40.091Z,13.65
2019-05-01T20:23:30.733Z,16.50
2019-05-01T20:26:03.783Z,13.93
2019-05-01T20:28:34.966Z,15.78
2019-05-01T20:31:09.864Z,14.30
2019-05-01T20:33:44.538Z,15.05
2019-05-01T20:36:18.190Z,13.25
2019-05-01T20:38:52.688Z,13.55
2019-05-01T20:41:28.743Z,18.00
2019-05-01T20:44:02.344Z,14.03
2019-05-01T20:46:31.711Z,11.90
2019-05-01T20:49:06.316Z,15.97
2019-05-01T20:51:32.822Z,9.98
2019-05-01T20:54:08.709Z,12.00
2019-05-01T20:56:53.256Z,13.22
2019-05-01T20:59:22.688Z,12.90
2019-05-01T21:01:51.968Z,21.87
2019-05-01T21:04:38.818Z,10.27
2019-05-01T21:07:19.814Z,16.42
2019-05-01T21:09:56.803Z,11.75
2019-05-01T21:12:20.408Z,14.93
2019-05-01T21:14:50.956Z,13.27
2019-05-01T21:17:44.250Z,12.85
2019-05-01T21:20:13.471Z,11.35
2019-05-01T21:22:43.538Z,12.80
2019-05-01T21:25:21.260Z,13.32
2019-05-01T21:27:57.366Z,10.18
2019-05-01T21:30:33.920Z,18.30
2019-05-01T21:33:09.888Z,14.47
2019-05-01T21:35:35.148Z,13.93
2019-05-01T21:38:04.639Z,16.90
2019-05-01T21:40:40.801Z,11.93
2019-05-01T21:43:04.969Z,12.90
2019-05-01T21:45:34.117Z,12.70
2019-05-01T21:48:03.319Z,31.13
2019-05-01T21:50:33.545Z,11.87
2019-05-01T21:53:06.674Z,13.43
2019-05-01T21:55:34.001Z,13.22
2019-05-01T21:58:05.234Z,13.85
2019-05-01T22:00:39.095Z,12.13
2019-05-01T22:03:08.630Z,10.58
2019-05-01T22:05:39.688Z,16.90
2019-05-01T22:08:09.090Z,14.03
2019-05-01T22:10:51.091Z,18.75
2019-05-01T22:13:09.729Z,18.50
2019-05-01T22:15:47.163Z,19.52
2019-05-01T22:18:24.566Z,17.73
2019-05-01T22:21:15.858Z,22.67
2019-05-01T22:24:02.850Z,13.72
2019-05-01T22:26:34.085Z,12.93
2019-05-01T22:29:05.325Z,19.05
2019-05-01T22:31:52.809Z,18.50
2019-05-01T22:34:32.636Z,16.55
2019-05-01T22:37:01.940Z,21.27
2019-05-01T22:39:32.509Z,22.73
2019-05-01T22:42:02.122Z,20.80
2019-05-01T22:44:31.484Z,17.92
2019-05-01T22:47:00.886Z,20.73
2019-05-01T22:49:30.209Z,20.15
2019-05-01T22:51:59.604Z,17.77
2019-05-01T22:54:29.091Z,25.27
2019-05-01T22:56:58.514Z,18.50
2019-05-01T22:59:27.657Z,21.50
2019-05-01T23:02:02.447Z,21.48
2019-05-01T23:04:31.851Z,21.10
2019-05-01T23:07:03.890Z,20.27
2019-05-01T23:09:35.851Z,21.23
2019-05-01T23:12:05.229Z,21.20
2019-05-01T23:14:34.631Z,19.50
2019-05-01T23:17:15.805Z,24.43
2019-05-01T23:19:45.170Z,17.27
2019-05-01T23:22:14.437Z,23.20
2019-05-01T23:24:43.672Z,22.80
2019-05-01T23:27:12.938Z,19.85
2019-05-01T23:29:42.059Z,22.10
2019-05-01T23:32:11.333Z,24.20
2019-05-01T23:34:40.711Z,20.82
2019-05-01T23:37:10.008Z,24.75
2019-05-01T23:39:40.618Z,23.03
2019-05-01T23:42:10.247Z,22.45
2019-05-01T23:44:42.914Z,22.07
2019-05-01T23:47:10.546Z,29.45
2019-05-01T23:49:39.793Z,22.70
2019-05-01T23:52:09.174Z,22.00
2019-05-01T23:54:40.542Z,25.08
2019-05-01T23:57:10.228Z,23.55
2019-05-01T23:59:40.089Z,20.82
